sensor_id;sensor_type;location;lat;lon;timestamp;temperature;humidity
64549;DHT22;49838;51.798;10.954;2023-10-08T00:00:25;23.90;45.90
64549;DHT22;49838;51.798;10.954;2023-10-08T00:03:09;23.90;45.90
64549;DHT22;49838;51.798;10.954;2023-10-08T00:05:37;23.90;45.80
64549;DHT22;49838;51.798;10.954;2023-10-08T00:08:06;23.90;45.70
64549;DHT22;49838;51.798;10.954;2023-10-08T00:10:35;23.90;45.90
64549;DHT22;49838;51.798;10.954;2023-10-08T00:13:04;23.90;45.60
64549;DHT22;49838;51.798;10.954;2023-10-08T00:15:33;24.00;45.70
64549;DHT22;49838;51.798;10.954;2023-10-08T00:18:02;24.00;45.70
64549;DHT22;49838;51.798;10.954;2023-10-08T00:20:31;23.90;45.80
64549;DHT22;49838;51.798;10.954;2023-10-08T00:23:09;23.90;46.00
64549;DHT22;49838;51.798;10.954;2023-10-08T00:25:37;23.90;46.50
64549;DHT22;49838;51.798;10.954;2023-10-08T00:28:07;23.80;46.40
64549;DHT22;49838;51.798;10.954;2023-10-08T00:30:39;23.70;46.50
64549;DHT22;49838;51.798;10.954;2023-10-08T00:33:07;23.70;46.60
64549;DHT22;49838;51.798;10.954;2023-10-08T00:35:37;23.70;46.90
64549;DHT22;49838;51.798;10.954;2023-10-08T00:38:06;23.70;47.10
64549;DHT22;49838;51.798;10.954;2023-10-08T00:40:42;23.40;48.10
64549;DHT22;49838;51.798;10.954;2023-10-08T00:45:57;21.90;48.00
64549;DHT22;49838;51.798;10.954;2023-10-08T00:48:26;21.30;48.10
64549;DHT22;49838;51.798;10.954;2023-10-08T00:51:01;20.80;48.10
64549;DHT22;49838;51.798;10.954;2023-10-08T00:53:42;20.50;47.40
64549;DHT22;49838;51.798;10.954;2023-10-08T00:56:12;20.30;47.20
64549;DHT22;49838;51.798;10.954;2023-10-08T00:58:44;20.10;47.90
64549;DHT22;49838;51.798;10.954;2023-10-08T01:01:15;20.00;47.20
64549;DHT22;49838;51.798;10.954;2023-10-08T01:03:42;19.80;46.80
64549;DHT22;49838;51.798;10.954;2023-10-08T01:06:40;19.70;47.20
64549;DHT22;49838;51.798;10.954;2023-10-08T01:09:42;19.60;46.70
64549;DHT22;49838;51.798;10.954;2023-10-08T11:06:05;31.90;43.30
64549;DHT22;49838;51.798;10.954;2023-10-08T11:08:41;32.10;43.20
64549;DHT22;49838;51.798;10.954;2023-10-08T11:11:12;32.50;43.40
64549;DHT22;49838;51.798;10.954;2023-10-08T11:13:43;32.80;42.90
64549;DHT22;49838;51.798;10.954;2023-10-08T11:16:17;33.00;42.50
64549;DHT22;49838;51.798;10.954;2023-10-08T11:18:47;33.20;41.90
64549;DHT22;49838;51.798;10.954;2023-10-08T11:21:17;33.10;41.40
64549;DHT22;49838;51.798;10.954;2023-10-08T11:23:50;32.90;41.00
64549;DHT22;49838;51.798;10.954;2023-10-08T11:26:25;32.40;40.50
64549;DHT22;49838;51.798;10.954;2023-10-08T11:28:59;31.90;40.00
64549;DHT22;49838;51.798;10.954;2023-10-08T11:31:28;31.20;39.60
64549;DHT22;49838;51.798;10.954;2023-10-08T11:33:59;30.50;39.70
64549;DHT22;49838;51.798;10.954;2023-10-08T11:36:36;29.90;38.60
64549;DHT22;49838;51.798;10.954;2023-10-08T11:39:14;29.30;39.70
64549;DHT22;49838;51.798;10.954;2023-10-08T11:41:57;28.80;39.10
64549;DHT22;49838;51.798;10.954;2023-10-08T11:44:29;28.20;39.00
64549;DHT22;49838;51.798;10.954;2023-10-08T11:46:57;27.70;39.30
64549;DHT22;49838;51.798;10.954;2023-10-08T11:49:30;27.40;40.00
64549;DHT22;49838;51.798;10.954;2023-10-08T11:52:03;27.00;39.70
64549;DHT22;49838;51.798;10.954;2023-10-08T11:54:31;26.70;37.80
64549;DHT22;49838;51.798;10.954;2023-10-08T11:56:59;26.30;38.60
64549;DHT22;49838;51.798;10.954;2023-10-08T11:59:28;26.10;39.60
64549;DHT22;49838;51.798;10.954;2023-10-08T12:01:55;26.00;39.50
64549;DHT22;49838;51.798;10.954;2023-10-08T12:04:23;25.80;39.70
64549;DHT22;49838;51.798;10.954;2023-10-08T12:06:50;25.70;39.90
64549;DHT22;49838;51.798;10.954;2023-10-08T12:09:19;25.70;40.00
64549;DHT22;49838;51.798;10.954;2023-10-08T12:11:47;25.60;39.80
64549;DHT22;49838;51.798;10.954;2023-10-08T12:14:15;25.60;39.70
64549;DHT22;49838;51.798;10.954;2023-10-08T12:16:42;25.60;39.80
64549;DHT22;49838;51.798;10.954;2023-10-08T12:19:11;25.60;40.00
64549;DHT22;49838;51.798;10.954;2023-10-08T12:21:42;25.60;39.70
64549;DHT22;49838;51.798;10.954;2023-10-08T12:24:13;25.70;39.90
64549;DHT22;49838;51.798;10.954;2023-10-08T12:26:42;25.80;40.10
64549;DHT22;49838;51.798;10.954;2023-10-08T12:29:12;25.70;40.10
64549;DHT22;49838;51.798;10.954;2023-10-08T12:31:40;25.60;39.90
64549;DHT22;49838;51.798;10.954;2023-10-08T12:34:07;25.50;39.70
64549;DHT22;49838;51.798;10.954;2023-10-08T12:36:37;25.30;39.50
64549;DHT22;49838;51.798;10.954;2023-10-08T12:39:05;25.00;39.80
64549;DHT22;49838;51.798;10.954;2023-10-08T12:41:42;24.80;39.40
64549;DHT22;49838;51.798;10.954;2023-10-08T12:44:09;24.60;39.00
64549;DHT22;49838;51.798;10.954;2023-10-08T12:46:37;24.40;39.30
64549;DHT22;49838;51.798;10.954;2023-10-08T12:49:04;24.20;38.30
64549;DHT22;49838;51.798;10.954;2023-10-08T12:51:33;24.00;39.10
64549;DHT22;49838;51.798;10.954;2023-10-08T12:54:01;23.90;39.50
64549;DHT22;49838;51.798;10.954;2023-10-08T12:56:32;23.90;39.40
64549;DHT22;49838;51.798;10.954;2023-10-08T12:59:06;23.90;38.70
64549;DHT22;49838;51.798;10.954;2023-10-08T13:01:34;23.90;38.70
64549;DHT22;49838;51.798;10.954;2023-10-08T13:04:02;23.70;38.10
64549;DHT22;49838;51.798;10.954;2023-10-08T13:06:33;23.60;38.20
64549;DHT22;49838;51.798;10.954;2023-10-08T13:09:03;23.40;39.00
64549;DHT22;49838;51.798;10.954;2023-10-08T13:11:38;23.40;39.10
64549;DHT22;49838;51.798;10.954;2023-10-08T13:14:07;23.30;38.90
64549;DHT22;49838;51.798;10.954;2023-10-08T13:16:34;23.20;39.30
64549;DHT22;49838;51.798;10.954;2023-10-08T13:19:03;23.20;39.40
64549;DHT22;49838;51.798;10.954;2023-10-08T13:21:34;23.10;39.10
64549;DHT22;49838;51.798;10.954;2023-10-08T13:24:03;23.00;39.30
64549;DHT22;49838;51.798;10.954;2023-10-08T13:26:34;22.90;38.50
64549;DHT22;49838;51.798;10.954;2023-10-08T13:29:03;22.80;38.40
64549;DHT22;49838;51.798;10.954;2023-10-08T13:31:36;22.70;38.50
64549;DHT22;49838;51.798;10.954;2023-10-08T13:34:03;22.60;38.90
64549;DHT22;49838;51.798;10.954;2023-10-08T13:36:34;22.50;39.00
64549;DHT22;49838;51.798;10.954;2023-10-08T13:39:04;22.50;39.30
64549;DHT22;49838;51.798;10.954;2023-10-08T13:41:35;22.50;39.30
64549;DHT22;49838;51.798;10.954;2023-10-08T13:44:04;22.50;39.40
64549;DHT22;49838;51.798;10.954;2023-10-08T13:46:32;22.50;39.30
64549;DHT22;49838;51.798;10.954;2023-10-08T13:49:03;22.60;38.90
64549;DHT22;49838;51.798;10.954;2023-10-08T13:51:34;22.60;38.70
64549;DHT22;49838;51.798;10.954;2023-10-08T13:54:03;22.50;38.90
64549;DHT22;49838;51.798;10.954;2023-10-08T13:56:32;22.50;39.10
64549;DHT22;49838;51.798;10.954;2023-10-08T13:59:03;22.40;38.60
64549;DHT22;49838;51.798;10.954;2023-10-08T14:01:38;22.30;38.70
64549;DHT22;49838;51.798;10.954;2023-10-08T14:04:13;22.20;39.00
64549;DHT22;49838;51.798;10.954;2023-10-08T14:06:45;22.20;39.20
64549;DHT22;49838;51.798;10.954;2023-10-08T14:09:17;22.30;39.30
64549;DHT22;49838;51.798;10.954;2023-10-08T14:11:48;22.30;39.40
64549;DHT22;49838;51.798;10.954;2023-10-08T14:14:18;22.30;39.30
64549;DHT22;49838;51.798;10.954;2023-10-08T14:16:49;22.30;39.30
64549;DHT22;49838;51.798;10.954;2023-10-08T14:19:19;22.30;39.30
64549;DHT22;49838;51.798;10.954;2023-10-08T14:21:54;22.30;39.30
64549;DHT22;49838;51.798;10.954;2023-10-08T14:24:29;22.20;39.30
64549;DHT22;49838;51.798;10.954;2023-10-08T14:27:01;22.20;39.40
64549;DHT22;49838;51.798;10.954;2023-10-08T14:29:29;22.10;39.40
64549;DHT22;49838;51.798;10.954;2023-10-08T14:31:56;22.10;39.50
64549;DHT22;49838;51.798;10.954;2023-10-08T14:34:27;22.00;39.40
64549;DHT22;49838;51.798;10.954;2023-10-08T14:37:18;22.00;39.40
64549;DHT22;49838;51.798;10.954;2023-10-08T14:40:03;22.00;39.40
64549;DHT22;49838;51.798;10.954;2023-10-08T14:42:48;22.00;39.40
64549;DHT22;49838;51.798;10.954;2023-10-08T14:45:22;22.00;39.40
64549;DHT22;49838;51.798;10.954;2023-10-08T14:47:52;21.90;39.00
64549;DHT22;49838;51.798;10.954;2023-10-08T14:50:22;21.90;39.20
64549;DHT22;49838;51.798;10.954;2023-10-08T14:52:53;21.90;39.40
64549;DHT22;49838;51.798;10.954;2023-10-08T14:55:21;22.00;39.10
64549;DHT22;49838;51.798;10.954;2023-10-08T14:57:49;21.90;39.20
64549;DHT22;49838;51.798;10.954;2023-10-08T15:00:18;22.00;39.40
64549;DHT22;49838;51.798;10.954;2023-10-08T15:02:51;22.00;39.50
64549;DHT22;49838;51.798;10.954;2023-10-08T15:05:20;22.10;39.50
64549;DHT22;49838;51.798;10.954;2023-10-08T15:07:50;22.10;39.10
64549;DHT22;49838;51.798;10.954;2023-10-08T15:10:18;22.10;39.30
64549;DHT22;49838;51.798;10.954;2023-10-08T15:12:47;22.10;39.40
64549;DHT22;49838;51.798;10.954;2023-10-08T15:15:16;22.10;39.40
64549;DHT22;49838;51.798;10.954;2023-10-08T15:17:43;22.20;39.40
64549;DHT22;49838;51.798;10.954;2023-10-08T15:20:12;22.10;39.00
64549;DHT22;49838;51.798;10.954;2023-10-08T15:22:42;22.00;39.10
64549;DHT22;49838;51.798;10.954;2023-10-08T15:25:11;21.90;39.20
64549;DHT22;49838;51.798;10.954;2023-10-08T15:27:40;21.90;39.40
64549;DHT22;49838;51.798;10.954;2023-10-08T15:30:13;21.80;39.10
64549;DHT22;49838;51.798;10.954;2023-10-08T15:32:42;21.70;39.20
64549;DHT22;49838;51.798;10.954;2023-10-08T15:35:12;21.60;39.90
64549;DHT22;49838;51.798;10.954;2023-10-08T15:37:42;21.60;39.30
64549;DHT22;49838;51.798;10.954;2023-10-08T15:40:10;21.50;39.30
64549;DHT22;49838;51.798;10.954;2023-10-08T15:42:43;21.50;39.20
64549;DHT22;49838;51.798;10.954;2023-10-08T15:45:14;21.40;39.10
64549;DHT22;49838;51.798;10.954;2023-10-08T15:47:41;21.40;39.20
64549;DHT22;49838;51.798;10.954;2023-10-08T15:50:09;21.30;39.20
64549;DHT22;49838;51.798;10.954;2023-10-08T15:52:37;21.30;39.20
64549;DHT22;49838;51.798;10.954;2023-10-08T15:55:05;21.30;39.20
64549;DHT22;49838;51.798;10.954;2023-10-08T15:57:35;21.30;39.30
64549;DHT22;49838;51.798;10.954;2023-10-08T16:00:02;21.20;39.20
64549;DHT22;49838;51.798;10.954;2023-10-08T16:02:31;21.20;39.20
64549;DHT22;49838;51.798;10.954;2023-10-08T16:04:58;21.20;39.20
64549;DHT22;49838;51.798;10.954;2023-10-08T16:07:25;21.20;39.30
64549;DHT22;49838;51.798;10.954;2023-10-08T16:09:53;21.10;39.20
64549;DHT22;49838;51.798;10.954;2023-10-08T16:12:23;21.10;39.30
64549;DHT22;49838;51.798;10.954;2023-10-08T16:14:51;21.00;39.20
64549;DHT22;49838;51.798;10.954;2023-10-08T16:17:19;21.00;39.30
64549;DHT22;49838;51.798;10.954;2023-10-08T16:19:46;21.00;39.30
64549;DHT22;49838;51.798;10.954;2023-10-08T16:22:14;21.00;39.30
64549;DHT22;49838;51.798;10.954;2023-10-08T16:24:42;21.00;39.20
64549;DHT22;49838;51.798;10.954;2023-10-08T16:27:10;21.00;39.30
64549;DHT22;49838;51.798;10.954;2023-10-08T16:29:37;21.00;39.20
64549;DHT22;49838;51.798;10.954;2023-10-08T16:32:06;20.90;39.20
64549;DHT22;49838;51.798;10.954;2023-10-08T16:34:36;20.90;39.20
64549;DHT22;49838;51.798;10.954;2023-10-08T16:37:04;20.90;39.20
64549;DHT22;49838;51.798;10.954;2023-10-08T16:39:32;20.90;39.20
64549;DHT22;49838;51.798;10.954;2023-10-08T16:41:59;20.90;39.20
64549;DHT22;49838;51.798;10.954;2023-10-08T16:44:30;20.80;39.20
64549;DHT22;49838;51.798;10.954;2023-10-08T16:46:57;20.80;39.20
64549;DHT22;49838;51.798;10.954;2023-10-08T16:49:26;20.70;39.10
64549;DHT22;49838;51.798;10.954;2023-10-08T16:51:56;20.70;39.20
64549;DHT22;49838;51.798;10.954;2023-10-08T16:54:24;20.60;39.10
64549;DHT22;49838;51.798;10.954;2023-10-08T16:56:52;20.60;39.20
64549;DHT22;49838;51.798;10.954;2023-10-08T16:59:19;20.60;39.20
64549;DHT22;49838;51.798;10.954;2023-10-08T17:01:46;20.50;39.10
64549;DHT22;49838;51.798;10.954;2023-10-08T17:04:14;20.50;39.20
64549;DHT22;49838;51.798;10.954;2023-10-08T17:06:43;20.50;39.20
64549;DHT22;49838;51.798;10.954;2023-10-08T17:09:10;20.40;39.10
64549;DHT22;49838;51.798;10.954;2023-10-08T17:11:42;20.40;39.80
64549;DHT22;49838;51.798;10.954;2023-10-08T17:14:11;20.30;39.10
64549;DHT22;49838;51.798;10.954;2023-10-08T17:16:39;20.40;39.20
64549;DHT22;49838;51.798;10.954;2023-10-08T17:19:09;20.20;39.00
64549;DHT22;49838;51.798;10.954;2023-10-08T17:21:37;20.20;39.10
64549;DHT22;49838;51.798;10.954;2023-10-08T17:24:06;20.20;39.10
64549;DHT22;49838;51.798;10.954;2023-10-08T17:26:34;20.10;39.10
64549;DHT22;49838;51.798;10.954;2023-10-08T17:29:02;20.10;39.10
64549;DHT22;49838;51.798;10.954;2023-10-08T17:31:35;20.10;39.10
64549;DHT22;49838;51.798;10.954;2023-10-08T17:34:03;20.00;39.00
64549;DHT22;49838;51.798;10.954;2023-10-08T17:36:31;20.00;39.70
64549;DHT22;49838;51.798;10.954;2023-10-08T17:38:58;20.00;39.10
64549;DHT22;49838;51.798;10.954;2023-10-08T17:41:27;19.90;39.10
64549;DHT22;49838;51.798;10.954;2023-10-08T17:43:55;19.90;39.10
64549;DHT22;49838;51.798;10.954;2023-10-08T17:46:22;19.90;39.20
64549;DHT22;49838;51.798;10.954;2023-10-08T17:48:52;19.80;39.10
64549;DHT22;49838;51.798;10.954;2023-10-08T17:51:20;19.80;39.20
64549;DHT22;49838;51.798;10.954;2023-10-08T17:53:47;19.80;39.20
64549;DHT22;49838;51.798;10.954;2023-10-08T17:56:15;19.80;39.30
64549;DHT22;49838;51.798;10.954;2023-10-08T17:58:44;19.80;39.20
64549;DHT22;49838;51.798;10.954;2023-10-08T18:01:12;19.70;39.20
64549;DHT22;49838;51.798;10.954;2023-10-08T18:03:42;19.70;39.30
64549;DHT22;49838;51.798;10.954;2023-10-08T18:06:12;19.60;39.40
64549;DHT22;49838;51.798;10.954;2023-10-08T18:08:41;19.50;39.40
64549;DHT22;49838;51.798;10.954;2023-10-08T18:11:09;19.40;39.40
64549;DHT22;49838;51.798;10.954;2023-10-08T18:13:36;19.40;39.50
64549;DHT22;49838;51.798;10.954;2023-10-08T18:16:08;19.40;39.60
64549;DHT22;49838;51.798;10.954;2023-10-08T18:18:36;19.30;39.50
64549;DHT22;49838;51.798;10.954;2023-10-08T18:21:06;19.20;39.40
64549;DHT22;49838;51.798;10.954;2023-10-08T18:23:35;19.20;39.50
64549;DHT22;49838;51.798;10.954;2023-10-08T18:26:07;19.20;39.50
64549;DHT22;49838;51.798;10.954;2023-10-08T18:28:37;19.20;39.50
64549;DHT22;49838;51.798;10.954;2023-10-08T18:31:12;19.20;39.50
64549;DHT22;49838;51.798;10.954;2023-10-08T18:33:43;19.20;39.50
64549;DHT22;49838;51.798;10.954;2023-10-08T18:36:11;19.20;39.40
64549;DHT22;49838;51.798;10.954;2023-10-08T18:38:39;19.20;39.50
64549;DHT22;49838;51.798;10.954;2023-10-08T18:41:12;19.20;39.40
64549;DHT22;49838;51.798;10.954;2023-10-08T18:43:42;19.10;39.50
64549;DHT22;49838;51.798;10.954;2023-10-08T18:46:10;19.20;39.50
64549;DHT22;49838;51.798;10.954;2023-10-08T18:48:38;19.10;39.50
64549;DHT22;49838;51.798;10.954;2023-10-08T18:51:12;19.10;39.50
64549;DHT22;49838;51.798;10.954;2023-10-08T18:53:41;19.10;39.50
64549;DHT22;49838;51.798;10.954;2023-10-08T18:56:11;19.10;39.50
64549;DHT22;49838;51.798;10.954;2023-10-08T18:58:41;19.00;39.50
64549;DHT22;49838;51.798;10.954;2023-10-08T19:01:16;19.00;39.50
64549;DHT22;49838;51.798;10.954;2023-10-08T19:03:53;19.00;39.50
64549;DHT22;49838;51.798;10.954;2023-10-08T19:06:21;19.10;39.60
64549;DHT22;49838;51.798;10.954;2023-10-08T19:08:49;19.10;39.50
64549;DHT22;49838;51.798;10.954;2023-10-08T19:11:17;19.10;39.50
64549;DHT22;49838;51.798;10.954;2023-10-08T19:13:44;19.10;39.50
64549;DHT22;49838;51.798;10.954;2023-10-08T19:16:12;19.00;39.50
64549;DHT22;49838;51.798;10.954;2023-10-08T19:18:41;19.00;39.60
64549;DHT22;49838;51.798;10.954;2023-10-08T19:21:16;18.90;39.50
64549;DHT22;49838;51.798;10.954;2023-10-08T19:23:44;18.90;39.70
64549;DHT22;49838;51.798;10.954;2023-10-08T19:26:12;18.80;39.60
64549;DHT22;49838;51.798;10.954;2023-10-08T19:28:43;18.80;39.60
64549;DHT22;49838;51.798;10.954;2023-10-08T19:31:11;18.80;39.70
64549;DHT22;49838;51.798;10.954;2023-10-08T19:33:41;18.70;39.60
64549;DHT22;49838;51.798;10.954;2023-10-08T19:36:13;18.70;39.60
64549;DHT22;49838;51.798;10.954;2023-10-08T19:38:44;18.70;39.70
64549;DHT22;49838;51.798;10.954;2023-10-08T19:41:13;18.60;39.70
64549;DHT22;49838;51.798;10.954;2023-10-08T19:43:41;18.60;39.70
64549;DHT22;49838;51.798;10.954;2023-10-08T19:46:10;18.60;39.80
64549;DHT22;49838;51.798;10.954;2023-10-08T19:48:37;18.50;39.70
64549;DHT22;49838;51.798;10.954;2023-10-08T19:51:09;18.50;39.70
64549;DHT22;49838;51.798;10.954;2023-10-08T19:53:39;18.50;39.70
64549;DHT22;49838;51.798;10.954;2023-10-08T19:56:10;18.50;39.70
64549;DHT22;49838;51.798;10.954;2023-10-08T19:58:38;18.50;39.70
64549;DHT22;49838;51.798;10.954;2023-10-08T20:01:05;18.40;39.70
64549;DHT22;49838;51.798;10.954;2023-10-08T20:03:32;18.40;39.70
64549;DHT22;49838;51.798;10.954;2023-10-08T20:06:00;18.50;39.70
64549;DHT22;49838;51.798;10.954;2023-10-08T20:08:28;18.50;39.60
64549;DHT22;49838;51.798;10.954;2023-10-08T20:10:56;18.50;40.20
64549;DHT22;49838;51.798;10.954;2023-10-08T20:13:24;18.50;39.60
64549;DHT22;49838;51.798;10.954;2023-10-08T20:15:53;18.50;39.60
64549;DHT22;49838;51.798;10.954;2023-10-08T20:18:21;18.50;39.60
64549;DHT22;49838;51.798;10.954;2023-10-08T20:20:51;18.50;39.50
64549;DHT22;49838;51.798;10.954;2023-10-08T20:23:19;18.50;39.50
64549;DHT22;49838;51.798;10.954;2023-10-08T20:25:48;18.60;39.60
64549;DHT22;49838;51.798;10.954;2023-10-08T20:28:20;18.60;39.60
64549;DHT22;49838;51.798;10.954;2023-10-08T20:30:52;18.60;39.60
64549;DHT22;49838;51.798;10.954;2023-10-08T20:33:20;18.60;39.50
64549;DHT22;49838;51.798;10.954;2023-10-08T20:35:50;18.60;39.50
64549;DHT22;49838;51.798;10.954;2023-10-08T20:38:18;18.60;39.50
64549;DHT22;49838;51.798;10.954;2023-10-08T20:40:47;18.60;39.50
64549;DHT22;49838;51.798;10.954;2023-10-08T20:43:17;18.50;39.50
64549;DHT22;49838;51.798;10.954;2023-10-08T20:45:50;18.50;39.50
64549;DHT22;49838;51.798;10.954;2023-10-08T20:48:17;18.50;39.50
64549;DHT22;49838;51.798;10.954;2023-10-08T20:50:45;18.60;39.60
64549;DHT22;49838;51.798;10.954;2023-10-08T20:53:12;18.60;39.60
64549;DHT22;49838;51.798;10.954;2023-10-08T20:55:41;18.60;39.50
64549;DHT22;49838;51.798;10.954;2023-10-08T20:58:10;18.60;39.50
64549;DHT22;49838;51.798;10.954;2023-10-08T21:00:40;18.60;39.50
64549;DHT22;49838;51.798;10.954;2023-10-08T21:03:12;18.70;39.50
64549;DHT22;49838;51.798;10.954;2023-10-08T21:05:40;18.70;39.50
64549;DHT22;49838;51.798;10.954;2023-10-08T21:08:08;18.70;39.50
64549;DHT22;49838;51.798;10.954;2023-10-08T21:10:37;18.60;39.40
64549;DHT22;49838;51.798;10.954;2023-10-08T21:13:08;18.60;39.40
64549;DHT22;49838;51.798;10.954;2023-10-08T21:15:36;18.60;39.40
64549;DHT22;49838;51.798;10.954;2023-10-08T21:18:04;18.60;39.40
64549;DHT22;49838;51.798;10.954;2023-10-08T21:20:34;18.70;39.40
64549;DHT22;49838;51.798;10.954;2023-10-08T21:23:03;18.70;39.30
64549;DHT22;49838;51.798;10.954;2023-10-08T21:25:31;18.70;39.20
64549;DHT22;49838;51.798;10.954;2023-10-08T21:27:58;18.60;39.10
64549;DHT22;49838;51.798;10.954;2023-10-08T21:30:26;18.60;39.20
64549;DHT22;49838;51.798;10.954;2023-10-08T21:32:54;18.60;39.20
64549;DHT22;49838;51.798;10.954;2023-10-08T21:35:22;18.60;39.20
64549;DHT22;49838;51.798;10.954;2023-10-08T21:37:52;18.60;39.20
64549;DHT22;49838;51.798;10.954;2023-10-08T21:40:19;18.60;39.20
64549;DHT22;49838;51.798;10.954;2023-10-08T21:42:48;18.60;39.10
64549;DHT22;49838;51.798;10.954;2023-10-08T21:45:17;18.60;39.20
64549;DHT22;49838;51.798;10.954;2023-10-08T21:47:46;18.60;39.10
64549;DHT22;49838;51.798;10.954;2023-10-08T21:50:14;18.70;39.20
64549;DHT22;49838;51.798;10.954;2023-10-08T21:52:43;18.60;39.10
64549;DHT22;49838;51.798;10.954;2023-10-08T21:55:14;18.60;39.00
64549;DHT22;49838;51.798;10.954;2023-10-08T21:57:43;18.70;39.10
64549;DHT22;49838;51.798;10.954;2023-10-08T22:00:12;18.60;39.00
64549;DHT22;49838;51.798;10.954;2023-10-08T22:02:58;18.60;38.90
64549;DHT22;49838;51.798;10.954;2023-10-08T22:05:27;18.60;38.90
64549;DHT22;49838;51.798;10.954;2023-10-08T22:07:56;18.60;38.90
64549;DHT22;49838;51.798;10.954;2023-10-08T22:10:25;18.50;38.80
64549;DHT22;49838;51.798;10.954;2023-10-08T22:12:53;18.50;38.80
64549;DHT22;49838;51.798;10.954;2023-10-08T22:15:24;18.50;38.80
64549;DHT22;49838;51.798;10.954;2023-10-08T22:17:53;18.50;38.80
64549;DHT22;49838;51.798;10.954;2023-10-08T22:20:22;18.50;38.80
64549;DHT22;49838;51.798;10.954;2023-10-08T22:23:17;18.50;38.80
64549;DHT22;49838;51.798;10.954;2023-10-08T22:25:49;18.40;38.80
64549;DHT22;49838;51.798;10.954;2023-10-08T22:28:18;18.40;38.80
64549;DHT22;49838;51.798;10.954;2023-10-08T22:30:48;18.40;38.90
64549;DHT22;49838;51.798;10.954;2023-10-08T22:33:17;18.40;38.80
64549;DHT22;49838;51.798;10.954;2023-10-08T22:35:51;18.30;38.80
64549;DHT22;49838;51.798;10.954;2023-10-08T22:38:19;18.30;38.80
64549;DHT22;49838;51.798;10.954;2023-10-08T22:40:50;18.30;38.80
64549;DHT22;49838;51.798;10.954;2023-10-08T22:43:31;18.20;38.80
64549;DHT22;49838;51.798;10.954;2023-10-08T22:46:01;18.20;38.80
64549;DHT22;49838;51.798;10.954;2023-10-08T22:48:29;18.20;38.80
64549;DHT22;49838;51.798;10.954;2023-10-08T22:51:01;18.20;38.80
64549;DHT22;49838;51.798;10.954;2023-10-08T22:53:35;18.20;38.80
64549;DHT22;49838;51.798;10.954;2023-10-08T22:56:05;18.10;38.80
64549;DHT22;49838;51.798;10.954;2023-10-08T22:58:33;18.10;38.90
64549;DHT22;49838;51.798;10.954;2023-10-08T23:01:08;18.00;38.90
64549;DHT22;49838;51.798;10.954;2023-10-08T23:03:38;18.00;38.90
64549;DHT22;49838;51.798;10.954;2023-10-08T23:06:08;18.00;39.00
64549;DHT22;49838;51.798;10.954;2023-10-08T23:08:38;18.00;39.00
64549;DHT22;49838;51.798;10.954;2023-10-08T23:11:07;18.00;39.00
64549;DHT22;49838;51.798;10.954;2023-10-08T23:13:35;18.00;38.90
64549;DHT22;49838;51.798;10.954;2023-10-08T23:16:04;18.10;39.00
64549;DHT22;49838;51.798;10.954;2023-10-08T23:18:32;18.10;39.00
64549;DHT22;49838;51.798;10.954;2023-10-08T23:21:01;18.10;38.90
64549;DHT22;49838;51.798;10.954;2023-10-08T23:23:32;18.20;38.90
64549;DHT22;49838;51.798;10.954;2023-10-08T23:26:00;18.20;38.90
64549;DHT22;49838;51.798;10.954;2023-10-08T23:28:29;18.20;38.80
64549;DHT22;49838;51.798;10.954;2023-10-08T23:30:59;18.20;38.80
64549;DHT22;49838;51.798;10.954;2023-10-08T23:33:28;18.20;38.80
64549;DHT22;49838;51.798;10.954;2023-10-08T23:36:03;18.10;38.80
64549;DHT22;49838;51.798;10.954;2023-10-08T23:38:35;18.10;38.80
64549;DHT22;49838;51.798;10.954;2023-10-08T23:41:05;18.10;38.90
64549;DHT22;49838;51.798;10.954;2023-10-08T23:43:44;18.10;38.90
64549;DHT22;49838;51.798;10.954;2023-10-08T23:46:20;18.10;38.90
64549;DHT22;49838;51.798;10.954;2023-10-08T23:48:56;18.10;39.00
64549;DHT22;49838;51.798;10.954;2023-10-08T23:51:34;18.10;39.00
64549;DHT22;49838;51.798;10.954;2023-10-08T23:54:04;18.10;39.00
64549;DHT22;49838;51.798;10.954;2023-10-08T23:56:38;18.10;39.00
64549;DHT22;49838;51.798;10.954;2023-10-08T23:59:12;18.20;39.00
